sensor_id;sensor_type;location;lat;lon;timestamp;P1;durP1;ratioP1;P2;durP2;ratioP2
15553;SDS011;7878;44.632;10.942;2024-02-21T00:01:53;80.00;;;52.90;;
15553;SDS011;7878;44.632;10.942;2024-02-21T00:04:18;80.47;;;52.10;;
15553;SDS011;7878;44.632;10.942;2024-02-21T00:06:44;80.33;;;50.80;;
15553;SDS011;7878;44.632;10.942;2024-02-21T00:09:10;74.40;;;49.23;;
15553;SDS011;7878;44.632;10.942;2024-02-21T00:11:36;78.33;;;50.07;;
15553;SDS011;7878;44.632;10.942;2024-02-21T00:14:01;71.90;;;49.83;;
15553;SDS011;7878;44.632;10.942;2024-02-21T00:16:27;78.30;;;52.50;;
15553;SDS011;7878;44.632;10.942;2024-02-21T00:18:53;76.07;;;51.50;;
15553;SDS011;7878;44.632;10.942;2024-02-21T00:21:19;83.83;;;52.57;;
15553;SDS011;7878;44.632;10.942;2024-02-21T00:23:44;77.73;;;52.30;;
15553;SDS011;7878;44.632;10.942;2024-02-21T00:26:15;81.20;;;52.50;;
15553;SDS011;7878;44.632;10.942;2024-02-21T00:28:41;80.27;;;50.67;;
15553;SDS011;7878;44.632;10.942;2024-02-21T00:31:06;78.40;;;52.67;;
15553;SDS011;7878;44.632;10.942;2024-02-21T00:33:32;76.27;;;49.60;;
15553;SDS011;7878;44.632;10.942;2024-02-21T00:35:58;72.57;;;48.67;;
15553;SDS011;7878;44.632;10.942;2024-02-21T00:38:23;77.07;;;50.97;;
15553;SDS011;7878;44.632;10.942;2024-02-21T00:40:49;81.03;;;50.40;;
15553;SDS011;7878;44.632;10.942;2024-02-21T00:43:15;81.67;;;52.33;;
15553;SDS011;7878;44.632;10.942;2024-02-21T00:45:40;75.70;;;51.23;;
15553;SDS011;7878;44.632;10.942;2024-02-21T00:48:07;77.63;;;50.17;;
15553;SDS011;7878;44.632;10.942;2024-02-21T00:50:32;77.30;;;49.50;;
15553;SDS011;7878;44.632;10.942;2024-02-21T00:52:58;75.50;;;49.77;;
15553;SDS011;7878;44.632;10.942;2024-02-21T00:55:24;74.33;;;49.13;;
15553;SDS011;7878;44.632;10.942;2024-02-21T00:57:49;67.90;;;46.87;;
15553;SDS011;7878;44.632;10.942;2024-02-21T01:00:15;74.07;;;48.50;;
15553;SDS011;7878;44.632;10.942;2024-02-21T01:02:41;78.63;;;49.20;;
15553;SDS011;7878;44.632;10.942;2024-02-21T01:05:07;81.83;;;49.80;;
15553;SDS011;7878;44.632;10.942;2024-02-21T01:07:33;75.33;;;48.87;;
15553;SDS011;7878;44.632;10.942;2024-02-21T01:09:58;81.83;;;51.37;;
15553;SDS011;7878;44.632;10.942;2024-02-21T01:12:24;80.30;;;50.47;;
15553;SDS011;7878;44.632;10.942;2024-02-21T01:14:50;74.60;;;47.73;;
15553;SDS011;7878;44.632;10.942;2024-02-21T01:17:16;77.37;;;49.97;;
15553;SDS011;7878;44.632;10.942;2024-02-21T01:19:42;72.33;;;47.73;;
15553;SDS011;7878;44.632;10.942;2024-02-21T01:22:08;71.87;;;47.30;;
15553;SDS011;7878;44.632;10.942;2024-02-21T01:24:34;72.23;;;45.03;;
15553;SDS011;7878;44.632;10.942;2024-02-21T01:27:00;68.70;;;46.77;;
15553;SDS011;7878;44.632;10.942;2024-02-21T01:29:25;69.80;;;44.37;;
15553;SDS011;7878;44.632;10.942;2024-02-21T01:31:51;67.03;;;44.07;;
15553;SDS011;7878;44.632;10.942;2024-02-21T01:34:16;57.70;;;39.57;;
15553;SDS011;7878;44.632;10.942;2024-02-21T01:36:42;59.97;;;40.63;;
15553;SDS011;7878;44.632;10.942;2024-02-21T01:39:08;60.63;;;39.23;;
15553;SDS011;7878;44.632;10.942;2024-02-21T01:41:33;59.80;;;39.40;;
15553;SDS011;7878;44.632;10.942;2024-02-21T01:43:59;58.17;;;39.00;;
15553;SDS011;7878;44.632;10.942;2024-02-21T01:46:25;58.27;;;38.50;;
15553;SDS011;7878;44.632;10.942;2024-02-21T01:48:55;64.73;;;38.73;;
15553;SDS011;7878;44.632;10.942;2024-02-21T01:51:22;57.60;;;37.90;;
15553;SDS011;7878;44.632;10.942;2024-02-21T01:53:49;59.17;;;38.10;;
15553;SDS011;7878;44.632;10.942;2024-02-21T01:56:16;59.73;;;41.40;;
15553;SDS011;7878;44.632;10.942;2024-02-21T01:58:42;56.50;;;38.80;;
15553;SDS011;7878;44.632;10.942;2024-02-21T02:01:09;58.97;;;38.83;;
15553;SDS011;7878;44.632;10.942;2024-02-21T02:03:35;52.30;;;35.97;;
15553;SDS011;7878;44.632;10.942;2024-02-21T02:06:02;57.37;;;38.03;;
15553;SDS011;7878;44.632;10.942;2024-02-21T02:08:29;56.10;;;37.57;;
15553;SDS011;7878;44.632;10.942;2024-02-21T02:10:56;57.07;;;36.50;;
15553;SDS011;7878;44.632;10.942;2024-02-21T02:13:22;54.70;;;35.77;;
15553;SDS011;7878;44.632;10.942;2024-02-21T02:15:48;55.27;;;35.43;;
15553;SDS011;7878;44.632;10.942;2024-02-21T02:18:15;60.43;;;34.73;;
15553;SDS011;7878;44.632;10.942;2024-02-21T02:20:42;54.43;;;37.50;;
15553;SDS011;7878;44.632;10.942;2024-02-21T02:23:09;53.67;;;36.10;;
15553;SDS011;7878;44.632;10.942;2024-02-21T02:25:54;55.13;;;34.73;;
15553;SDS011;7878;44.632;10.942;2024-02-21T02:28:21;50.07;;;34.23;;
15553;SDS011;7878;44.632;10.942;2024-02-21T02:30:47;50.63;;;34.90;;
15553;SDS011;7878;44.632;10.942;2024-02-21T02:33:13;54.27;;;35.37;;
15553;SDS011;7878;44.632;10.942;2024-02-21T02:35:39;58.80;;;35.60;;
15553;SDS011;7878;44.632;10.942;2024-02-21T02:38:05;54.83;;;35.03;;
15553;SDS011;7878;44.632;10.942;2024-02-21T02:40:31;56.17;;;35.97;;
15553;SDS011;7878;44.632;10.942;2024-02-21T02:42:58;54.07;;;35.47;;
15553;SDS011;7878;44.632;10.942;2024-02-21T02:45:24;51.97;;;33.27;;
15553;SDS011;7878;44.632;10.942;2024-02-21T02:47:51;59.37;;;35.93;;
15553;SDS011;7878;44.632;10.942;2024-02-21T02:50:22;50.73;;;34.47;;
15553;SDS011;7878;44.632;10.942;2024-02-21T02:52:48;53.20;;;36.13;;
15553;SDS011;7878;44.632;10.942;2024-02-21T02:55:13;51.33;;;35.07;;
15553;SDS011;7878;44.632;10.942;2024-02-21T02:57:39;53.87;;;34.23;;
15553;SDS011;7878;44.632;10.942;2024-02-21T03:00:12;47.40;;;33.87;;
15553;SDS011;7878;44.632;10.942;2024-02-21T03:02:40;57.63;;;35.67;;
15553;SDS011;7878;44.632;10.942;2024-02-21T03:05:14;53.00;;;34.77;;
15553;SDS011;7878;44.632;10.942;2024-02-21T03:07:41;55.13;;;35.37;;
15553;SDS011;7878;44.632;10.942;2024-02-21T03:10:07;49.43;;;35.03;;
15553;SDS011;7878;44.632;10.942;2024-02-21T03:12:33;56.80;;;36.50;;
15553;SDS011;7878;44.632;10.942;2024-02-21T03:14:59;52.60;;;34.53;;
15553;SDS011;7878;44.632;10.942;2024-02-21T03:17:25;49.20;;;32.63;;
15553;SDS011;7878;44.632;10.942;2024-02-21T03:19:53;50.57;;;33.60;;
15553;SDS011;7878;44.632;10.942;2024-02-21T03:22:20;52.57;;;34.50;;
15553;SDS011;7878;44.632;10.942;2024-02-21T03:24:49;50.40;;;33.17;;
15553;SDS011;7878;44.632;10.942;2024-02-21T03:27:15;45.77;;;32.07;;
15553;SDS011;7878;44.632;10.942;2024-02-21T03:29:40;45.13;;;30.47;;
15553;SDS011;7878;44.632;10.942;2024-02-21T03:32:06;47.63;;;31.70;;
15553;SDS011;7878;44.632;10.942;2024-02-21T03:34:31;45.27;;;31.30;;
15553;SDS011;7878;44.632;10.942;2024-02-21T03:36:57;51.93;;;32.57;;
15553;SDS011;7878;44.632;10.942;2024-02-21T03:39:24;52.00;;;34.13;;
15553;SDS011;7878;44.632;10.942;2024-02-21T03:41:49;53.87;;;35.60;;
15553;SDS011;7878;44.632;10.942;2024-02-21T03:44:16;53.03;;;35.03;;
15553;SDS011;7878;44.632;10.942;2024-02-21T03:46:41;50.40;;;33.17;;
15553;SDS011;7878;44.632;10.942;2024-02-21T03:49:07;46.70;;;31.23;;
15553;SDS011;7878;44.632;10.942;2024-02-21T03:51:33;51.57;;;32.20;;
15553;SDS011;7878;44.632;10.942;2024-02-21T03:53:58;47.87;;;32.00;;
15553;SDS011;7878;44.632;10.942;2024-02-21T03:56:24;49.90;;;31.30;;
15553;SDS011;7878;44.632;10.942;2024-02-21T03:58:50;45.43;;;30.97;;
15553;SDS011;7878;44.632;10.942;2024-02-21T04:01:16;49.00;;;31.07;;
15553;SDS011;7878;44.632;10.942;2024-02-21T04:03:42;46.10;;;31.50;;
15553;SDS011;7878;44.632;10.942;2024-02-21T04:06:08;47.97;;;32.37;;
15553;SDS011;7878;44.632;10.942;2024-02-21T04:08:34;44.10;;;30.23;;
15553;SDS011;7878;44.632;10.942;2024-02-21T04:11:00;44.37;;;28.43;;
15553;SDS011;7878;44.632;10.942;2024-02-21T04:13:26;45.77;;;29.77;;
15553;SDS011;7878;44.632;10.942;2024-02-21T04:15:52;43.40;;;29.47;;
15553;SDS011;7878;44.632;10.942;2024-02-21T04:18:18;40.23;;;28.97;;
15553;SDS011;7878;44.632;10.942;2024-02-21T04:20:43;42.73;;;29.37;;
15553;SDS011;7878;44.632;10.942;2024-02-21T04:23:09;43.40;;;29.83;;
15553;SDS011;7878;44.632;10.942;2024-02-21T04:25:35;43.00;;;29.30;;
15553;SDS011;7878;44.632;10.942;2024-02-21T04:28:01;46.23;;;31.53;;
15553;SDS011;7878;44.632;10.942;2024-02-21T04:30:27;44.40;;;29.17;;
15553;SDS011;7878;44.632;10.942;2024-02-21T04:32:53;44.87;;;30.33;;
15553;SDS011;7878;44.632;10.942;2024-02-21T04:35:19;43.80;;;30.40;;
15553;SDS011;7878;44.632;10.942;2024-02-21T04:37:45;47.50;;;31.20;;
15553;SDS011;7878;44.632;10.942;2024-02-21T04:40:10;51.00;;;30.93;;
15553;SDS011;7878;44.632;10.942;2024-02-21T04:42:36;41.87;;;28.43;;
15553;SDS011;7878;44.632;10.942;2024-02-21T04:45:02;42.23;;;28.70;;
15553;SDS011;7878;44.632;10.942;2024-02-21T04:47:28;42.97;;;27.20;;
15553;SDS011;7878;44.632;10.942;2024-02-21T04:49:54;41.90;;;27.47;;
15553;SDS011;7878;44.632;10.942;2024-02-21T04:52:20;43.30;;;28.90;;
15553;SDS011;7878;44.632;10.942;2024-02-21T04:54:46;40.70;;;28.33;;
15553;SDS011;7878;44.632;10.942;2024-02-21T04:57:12;44.70;;;29.30;;
15553;SDS011;7878;44.632;10.942;2024-02-21T04:59:41;45.53;;;28.63;;
15553;SDS011;7878;44.632;10.942;2024-02-21T05:02:10;42.53;;;26.90;;
15553;SDS011;7878;44.632;10.942;2024-02-21T05:04:36;40.80;;;28.03;;
15553;SDS011;7878;44.632;10.942;2024-02-21T05:07:03;41.70;;;28.33;;
15553;SDS011;7878;44.632;10.942;2024-02-21T05:09:29;42.90;;;28.40;;
15553;SDS011;7878;44.632;10.942;2024-02-21T05:11:55;41.03;;;27.47;;
15553;SDS011;7878;44.632;10.942;2024-02-21T05:14:20;43.90;;;27.50;;
15553;SDS011;7878;44.632;10.942;2024-02-21T05:16:46;45.13;;;26.63;;
15553;SDS011;7878;44.632;10.942;2024-02-21T05:19:12;42.23;;;26.17;;
15553;SDS011;7878;44.632;10.942;2024-02-21T05:21:37;39.33;;;25.93;;
15553;SDS011;7878;44.632;10.942;2024-02-21T05:24:03;43.50;;;26.97;;
15553;SDS011;7878;44.632;10.942;2024-02-21T05:26:29;43.27;;;27.77;;
15553;SDS011;7878;44.632;10.942;2024-02-21T05:28:55;42.70;;;26.57;;
15553;SDS011;7878;44.632;10.942;2024-02-21T05:31:20;40.90;;;26.27;;
15553;SDS011;7878;44.632;10.942;2024-02-21T05:33:46;41.07;;;26.97;;
15553;SDS011;7878;44.632;10.942;2024-02-21T05:36:12;43.70;;;25.53;;
15553;SDS011;7878;44.632;10.942;2024-02-21T05:38:38;51.83;;;27.77;;
15553;SDS011;7878;44.632;10.942;2024-02-21T05:41:04;47.37;;;25.27;;
15553;SDS011;7878;44.632;10.942;2024-02-21T05:43:30;39.87;;;25.53;;
15553;SDS011;7878;44.632;10.942;2024-02-21T05:45:56;44.60;;;26.67;;
15553;SDS011;7878;44.632;10.942;2024-02-21T05:48:22;44.63;;;28.03;;
15553;SDS011;7878;44.632;10.942;2024-02-21T05:50:48;43.07;;;28.00;;
15553;SDS011;7878;44.632;10.942;2024-02-21T05:53:14;43.47;;;27.03;;
15553;SDS011;7878;44.632;10.942;2024-02-21T05:55:40;40.67;;;26.73;;
15553;SDS011;7878;44.632;10.942;2024-02-21T05:58:06;42.03;;;26.03;;
15553;SDS011;7878;44.632;10.942;2024-02-21T06:00:32;44.20;;;25.47;;
15553;SDS011;7878;44.632;10.942;2024-02-21T06:02:58;37.87;;;23.57;;
15553;SDS011;7878;44.632;10.942;2024-02-21T06:05:24;40.80;;;23.30;;
15553;SDS011;7878;44.632;10.942;2024-02-21T06:07:50;35.20;;;22.67;;
15553;SDS011;7878;44.632;10.942;2024-02-21T06:10:15;40.47;;;23.53;;
15553;SDS011;7878;44.632;10.942;2024-02-21T06:12:41;45.10;;;24.83;;
15553;SDS011;7878;44.632;10.942;2024-02-21T06:15:07;40.90;;;25.03;;
15553;SDS011;7878;44.632;10.942;2024-02-21T06:17:33;40.57;;;24.83;;
15553;SDS011;7878;44.632;10.942;2024-02-21T06:19:59;36.83;;;23.63;;
15553;SDS011;7878;44.632;10.942;2024-02-21T06:22:24;38.23;;;22.87;;
15553;SDS011;7878;44.632;10.942;2024-02-21T06:24:50;36.40;;;23.60;;
15553;SDS011;7878;44.632;10.942;2024-02-21T06:27:16;37.00;;;23.33;;
15553;SDS011;7878;44.632;10.942;2024-02-21T06:29:42;38.77;;;24.07;;
15553;SDS011;7878;44.632;10.942;2024-02-21T06:32:08;40.77;;;23.00;;
15553;SDS011;7878;44.632;10.942;2024-02-21T06:34:33;35.77;;;23.87;;
15553;SDS011;7878;44.632;10.942;2024-02-21T06:36:59;36.20;;;23.17;;
15553;SDS011;7878;44.632;10.942;2024-02-21T06:39:25;44.10;;;23.63;;
15553;SDS011;7878;44.632;10.942;2024-02-21T06:41:50;43.03;;;23.60;;
15553;SDS011;7878;44.632;10.942;2024-02-21T06:44:17;40.20;;;24.43;;
15553;SDS011;7878;44.632;10.942;2024-02-21T06:46:43;36.50;;;23.87;;
15553;SDS011;7878;44.632;10.942;2024-02-21T06:49:09;36.73;;;22.93;;
15553;SDS011;7878;44.632;10.942;2024-02-21T06:51:40;44.23;;;24.30;;
15553;SDS011;7878;44.632;10.942;2024-02-21T06:54:07;39.60;;;23.43;;
15553;SDS011;7878;44.632;10.942;2024-02-21T06:56:35;34.73;;;21.87;;
15553;SDS011;7878;44.632;10.942;2024-02-21T06:59:02;38.07;;;23.80;;
15553;SDS011;7878;44.632;10.942;2024-02-21T07:01:31;33.47;;;21.90;;
15553;SDS011;7878;44.632;10.942;2024-02-21T07:03:57;39.43;;;22.77;;
15553;SDS011;7878;44.632;10.942;2024-02-21T07:06:23;35.17;;;21.10;;
15553;SDS011;7878;44.632;10.942;2024-02-21T07:08:49;34.40;;;19.53;;
15553;SDS011;7878;44.632;10.942;2024-02-21T07:11:15;31.97;;;19.10;;
15553;SDS011;7878;44.632;10.942;2024-02-21T07:13:40;29.97;;;18.83;;
15553;SDS011;7878;44.632;10.942;2024-02-21T07:16:06;32.17;;;18.27;;
15553;SDS011;7878;44.632;10.942;2024-02-21T07:18:33;31.40;;;19.20;;
15553;SDS011;7878;44.632;10.942;2024-02-21T07:20:59;41.57;;;19.07;;
15553;SDS011;7878;44.632;10.942;2024-02-21T07:23:24;38.00;;;19.60;;
15553;SDS011;7878;44.632;10.942;2024-02-21T07:25:50;33.27;;;19.13;;
15553;SDS011;7878;44.632;10.942;2024-02-21T07:28:16;39.47;;;19.63;;
15553;SDS011;7878;44.632;10.942;2024-02-21T07:30:42;30.67;;;19.00;;
15553;SDS011;7878;44.632;10.942;2024-02-21T07:33:08;31.57;;;19.27;;
15553;SDS011;7878;44.632;10.942;2024-02-21T07:35:34;46.10;;;20.17;;
15553;SDS011;7878;44.632;10.942;2024-02-21T07:38:02;35.63;;;19.47;;
15553;SDS011;7878;44.632;10.942;2024-02-21T07:40:32;31.53;;;19.13;;
15553;SDS011;7878;44.632;10.942;2024-02-21T07:42:57;39.97;;;18.97;;
15553;SDS011;7878;44.632;10.942;2024-02-21T07:45:23;36.47;;;17.93;;
15553;SDS011;7878;44.632;10.942;2024-02-21T07:47:51;35.40;;;17.07;;
15553;SDS011;7878;44.632;10.942;2024-02-21T07:50:17;25.90;;;16.73;;
15553;SDS011;7878;44.632;10.942;2024-02-21T07:52:43;26.77;;;16.40;;
15553;SDS011;7878;44.632;10.942;2024-02-21T07:55:09;31.43;;;17.33;;
15553;SDS011;7878;44.632;10.942;2024-02-21T07:57:37;25.57;;;16.07;;
15553;SDS011;7878;44.632;10.942;2024-02-21T08:00:03;33.90;;;17.93;;
15553;SDS011;7878;44.632;10.942;2024-02-21T08:02:29;34.83;;;18.23;;
15553;SDS011;7878;44.632;10.942;2024-02-21T08:04:55;32.60;;;17.27;;
15553;SDS011;7878;44.632;10.942;2024-02-21T08:07:21;31.23;;;17.27;;
15553;SDS011;7878;44.632;10.942;2024-02-21T08:09:46;27.43;;;16.43;;
15553;SDS011;7878;44.632;10.942;2024-02-21T08:12:12;30.27;;;15.83;;
15553;SDS011;7878;44.632;10.942;2024-02-21T08:14:38;29.77;;;17.47;;
15553;SDS011;7878;44.632;10.942;2024-02-21T08:17:03;29.60;;;16.47;;
15553;SDS011;7878;44.632;10.942;2024-02-21T08:19:29;29.83;;;17.87;;
15553;SDS011;7878;44.632;10.942;2024-02-21T08:21:55;26.07;;;16.77;;
15553;SDS011;7878;44.632;10.942;2024-02-21T08:24:21;32.30;;;16.57;;
15553;SDS011;7878;44.632;10.942;2024-02-21T08:26:48;30.80;;;17.70;;
15553;SDS011;7878;44.632;10.942;2024-02-21T08:29:13;27.27;;;17.40;;
15553;SDS011;7878;44.632;10.942;2024-02-21T08:31:39;36.93;;;17.27;;
15553;SDS011;7878;44.632;10.942;2024-02-21T08:34:05;31.80;;;14.73;;
15553;SDS011;7878;44.632;10.942;2024-02-21T08:36:34;22.43;;;13.97;;
15553;SDS011;7878;44.632;10.942;2024-02-21T08:39:01;26.80;;;14.60;;
15553;SDS011;7878;44.632;10.942;2024-02-21T08:41:31;31.30;;;14.93;;
15553;SDS011;7878;44.632;10.942;2024-02-21T08:43:57;25.63;;;13.83;;
15553;SDS011;7878;44.632;10.942;2024-02-21T08:46:23;23.37;;;13.80;;
15553;SDS011;7878;44.632;10.942;2024-02-21T08:48:52;27.03;;;14.93;;
15553;SDS011;7878;44.632;10.942;2024-02-21T08:51:18;25.53;;;14.07;;
15553;SDS011;7878;44.632;10.942;2024-02-21T08:53:45;25.90;;;14.53;;
15553;SDS011;7878;44.632;10.942;2024-02-21T08:56:11;20.00;;;12.77;;
15553;SDS011;7878;44.632;10.942;2024-02-21T08:58:37;23.07;;;14.70;;
15553;SDS011;7878;44.632;10.942;2024-02-21T09:01:03;26.70;;;15.03;;
15553;SDS011;7878;44.632;10.942;2024-02-21T09:03:33;28.60;;;15.57;;
15553;SDS011;7878;44.632;10.942;2024-02-21T09:05:59;28.30;;;15.83;;
15553;SDS011;7878;44.632;10.942;2024-02-21T09:08:26;25.30;;;15.97;;
15553;SDS011;7878;44.632;10.942;2024-02-21T09:10:52;32.17;;;16.60;;
15553;SDS011;7878;44.632;10.942;2024-02-21T09:13:18;29.97;;;16.70;;
15553;SDS011;7878;44.632;10.942;2024-02-21T09:15:44;29.03;;;18.03;;
15553;SDS011;7878;44.632;10.942;2024-02-21T09:18:10;25.97;;;17.57;;
15553;SDS011;7878;44.632;10.942;2024-02-21T09:20:35;24.23;;;16.87;;
15553;SDS011;7878;44.632;10.942;2024-02-21T09:23:01;25.40;;;17.40;;
15553;SDS011;7878;44.632;10.942;2024-02-21T09:25:27;27.73;;;18.50;;
15553;SDS011;7878;44.632;10.942;2024-02-21T09:27:56;37.70;;;19.90;;
15553;SDS011;7878;44.632;10.942;2024-02-21T09:30:23;30.15;;;20.00;;
15553;SDS011;7878;44.632;10.942;2024-02-21T09:32:49;30.40;;;21.25;;
15553;SDS011;7878;44.632;10.942;2024-02-21T09:35:15;38.88;;;22.75;;
15553;SDS011;7878;44.632;10.942;2024-02-21T09:37:40;32.20;;;22.08;;
15553;SDS011;7878;44.632;10.942;2024-02-21T09:40:06;33.30;;;23.42;;
15553;SDS011;7878;44.632;10.942;2024-02-21T09:42:39;36.85;;;24.80;;
15553;SDS011;7878;44.632;10.942;2024-02-21T09:45:27;37.40;;;26.40;;
15553;SDS011;7878;44.632;10.942;2024-02-21T09:50:36;41.85;;;33.22;;
15553;SDS011;7878;44.632;10.942;2024-02-21T09:53:06;41.05;;;27.48;;
15553;SDS011;7878;44.632;10.942;2024-02-21T09:55:32;39.47;;;28.58;;
15553;SDS011;7878;44.632;10.942;2024-02-21T09:58:01;44.78;;;30.58;;
15553;SDS011;7878;44.632;10.942;2024-02-21T10:00:27;44.30;;;30.52;;
15553;SDS011;7878;44.632;10.942;2024-02-21T10:02:53;50.10;;;31.58;;
15553;SDS011;7878;44.632;10.942;2024-02-21T10:05:19;42.00;;;29.85;;
15553;SDS011;7878;44.632;10.942;2024-02-21T10:07:45;45.55;;;31.80;;
15553;SDS011;7878;44.632;10.942;2024-02-21T10:10:10;40.03;;;31.02;;
15553;SDS011;7878;44.632;10.942;2024-02-21T10:12:36;44.47;;;31.80;;
15553;SDS011;7878;44.632;10.942;2024-02-21T10:15:12;43.35;;;29.70;;
15553;SDS011;7878;44.632;10.942;2024-02-21T10:17:38;42.45;;;30.75;;
15553;SDS011;7878;44.632;10.942;2024-02-21T10:20:10;44.70;;;31.80;;
15553;SDS011;7878;44.632;10.942;2024-02-21T10:22:37;44.60;;;31.10;;
15553;SDS011;7878;44.632;10.942;2024-02-21T10:25:22;36.90;;;30.23;;
15553;SDS011;7878;44.632;10.942;2024-02-21T10:27:48;38.78;;;30.58;;
15553;SDS011;7878;44.632;10.942;2024-02-21T10:30:16;44.28;;;30.77;;
15553;SDS011;7878;44.632;10.942;2024-02-21T10:32:52;48.88;;;32.35;;
15553;SDS011;7878;44.632;10.942;2024-02-21T10:35:25;40.88;;;31.75;;
15553;SDS011;7878;44.632;10.942;2024-02-21T10:37:55;40.83;;;30.85;;
15553;SDS011;7878;44.632;10.942;2024-02-21T10:40:28;43.83;;;29.77;;
15553;SDS011;7878;44.632;10.942;2024-02-21T10:42:58;43.45;;;30.98;;
15553;SDS011;7878;44.632;10.942;2024-02-21T10:45:31;43.58;;;31.02;;
15553;SDS011;7878;44.632;10.942;2024-02-21T10:48:03;39.42;;;31.20;;
15553;SDS011;7878;44.632;10.942;2024-02-21T10:50:57;43.97;;;32.15;;
15553;SDS011;7878;44.632;10.942;2024-02-21T10:56:44;42.20;;;32.45;;
15553;SDS011;7878;44.632;10.942;2024-02-21T10:59:13;45.63;;;32.70;;
15553;SDS011;7878;44.632;10.942;2024-02-21T11:01:39;42.45;;;32.85;;
15553;SDS011;7878;44.632;10.942;2024-02-21T11:04:05;41.90;;;33.85;;
15553;SDS011;7878;44.632;10.942;2024-02-21T11:06:37;41.50;;;31.85;;
15553;SDS011;7878;44.632;10.942;2024-02-21T11:09:07;41.45;;;33.25;;
15553;SDS011;7878;44.632;10.942;2024-02-21T11:14:17;41.08;;;31.52;;
15553;SDS011;7878;44.632;10.942;2024-02-21T11:16:45;38.58;;;31.48;;
15553;SDS011;7878;44.632;10.942;2024-02-21T11:19:20;31.48;;;27.35;;
15553;SDS011;7878;44.632;10.942;2024-02-21T11:21:47;33.03;;;27.55;;
15553;SDS011;7878;44.632;10.942;2024-02-21T11:24:13;35.70;;;27.55;;
15553;SDS011;7878;44.632;10.942;2024-02-21T11:26:50;32.80;;;26.33;;
15553;SDS011;7878;44.632;10.942;2024-02-21T11:29:22;33.67;;;28.15;;
15553;SDS011;7878;44.632;10.942;2024-02-21T11:31:50;40.60;;;31.70;;
15553;SDS011;7878;44.632;10.942;2024-02-21T11:34:19;36.63;;;29.08;;
15553;SDS011;7878;44.632;10.942;2024-02-21T11:36:48;39.05;;;30.88;;
15553;SDS011;7878;44.632;10.942;2024-02-21T11:39:19;31.33;;;26.90;;
15553;SDS011;7878;44.632;10.942;2024-02-21T11:44:31;33.85;;;27.58;;
15553;SDS011;7878;44.632;10.942;2024-02-21T11:46:57;34.28;;;29.13;;
15553;SDS011;7878;44.632;10.942;2024-02-21T11:49:28;32.10;;;27.35;;
15553;SDS011;7878;44.632;10.942;2024-02-21T11:52:00;31.00;;;25.60;;
15553;SDS011;7878;44.632;10.942;2024-02-21T11:54:29;29.75;;;25.33;;
15553;SDS011;7878;44.632;10.942;2024-02-21T11:56:58;28.02;;;24.95;;
15553;SDS011;7878;44.632;10.942;2024-02-21T11:59:25;31.77;;;27.25;;
15553;SDS011;7878;44.632;10.942;2024-02-21T12:01:52;32.00;;;27.52;;
15553;SDS011;7878;44.632;10.942;2024-02-21T12:04:18;31.00;;;26.92;;
15553;SDS011;7878;44.632;10.942;2024-02-21T12:06:45;37.28;;;28.27;;
15553;SDS011;7878;44.632;10.942;2024-02-21T12:09:15;33.28;;;26.48;;
15553;SDS011;7878;44.632;10.942;2024-02-21T12:11:44;31.70;;;25.58;;
15553;SDS011;7878;44.632;10.942;2024-02-21T12:14:10;44.85;;;28.52;;
15553;SDS011;7878;44.632;10.942;2024-02-21T12:16:40;29.83;;;26.58;;
15553;SDS011;7878;44.632;10.942;2024-02-21T12:19:07;31.77;;;28.38;;
15553;SDS011;7878;44.632;10.942;2024-02-21T12:21:34;28.52;;;25.50;;
15553;SDS011;7878;44.632;10.942;2024-02-21T12:24:14;32.97;;;28.13;;
15553;SDS011;7878;44.632;10.942;2024-02-21T12:26:40;31.42;;;25.75;;
15553;SDS011;7878;44.632;10.942;2024-02-21T12:29:06;31.67;;;26.58;;
15553;SDS011;7878;44.632;10.942;2024-02-21T12:31:36;28.27;;;24.85;;
15553;SDS011;7878;44.632;10.942;2024-02-21T12:34:03;34.67;;;26.88;;
15553;SDS011;7878;44.632;10.942;2024-02-21T12:36:29;37.78;;;25.25;;
15553;SDS011;7878;44.632;10.942;2024-02-21T12:39:01;31.35;;;27.45;;
15553;SDS011;7878;44.632;10.942;2024-02-21T12:41:29;31.40;;;26.77;;
15553;SDS011;7878;44.632;10.942;2024-02-21T12:43:57;31.85;;;27.65;;
15553;SDS011;7878;44.632;10.942;2024-02-21T12:46:22;36.78;;;27.05;;
15553;SDS011;7878;44.632;10.942;2024-02-21T12:48:48;31.15;;;27.70;;
15553;SDS011;7878;44.632;10.942;2024-02-21T12:51:15;31.63;;;28.15;;
15553;SDS011;7878;44.632;10.942;2024-02-21T12:53:41;46.58;;;32.33;;
15553;SDS011;7878;44.632;10.942;2024-02-21T12:56:06;34.10;;;26.83;;
15553;SDS011;7878;44.632;10.942;2024-02-21T12:58:32;34.78;;;29.08;;
15553;SDS011;7878;44.632;10.942;2024-02-21T13:00:58;33.42;;;28.35;;
15553;SDS011;7878;44.632;10.942;2024-02-21T13:03:24;36.22;;;28.80;;
15553;SDS011;7878;44.632;10.942;2024-02-21T13:05:50;36.13;;;26.48;;
15553;SDS011;7878;44.632;10.942;2024-02-21T13:08:16;32.35;;;27.02;;
15553;SDS011;7878;44.632;10.942;2024-02-21T13:10:42;33.80;;;28.27;;
15553;SDS011;7878;44.632;10.942;2024-02-21T13:13:08;33.88;;;27.25;;
15553;SDS011;7878;44.632;10.942;2024-02-21T13:15:34;34.65;;;26.65;;
15553;SDS011;7878;44.632;10.942;2024-02-21T13:18:00;33.53;;;25.33;;
15553;SDS011;7878;44.632;10.942;2024-02-21T13:20:25;36.17;;;27.98;;
15553;SDS011;7878;44.632;10.942;2024-02-21T13:22:52;33.08;;;26.52;;
15553;SDS011;7878;44.632;10.942;2024-02-21T13:25:17;35.30;;;26.58;;
15553;SDS011;7878;44.632;10.942;2024-02-21T13:27:46;37.53;;;25.92;;
15553;SDS011;7878;44.632;10.942;2024-02-21T13:30:13;34.63;;;25.80;;
15553;SDS011;7878;44.632;10.942;2024-02-21T13:32:40;35.30;;;25.25;;
15553;SDS011;7878;44.632;10.942;2024-02-21T13:35:07;32.15;;;24.38;;
15553;SDS011;7878;44.632;10.942;2024-02-21T13:37:33;34.13;;;26.23;;
15553;SDS011;7878;44.632;10.942;2024-02-21T13:39:59;36.05;;;25.30;;
15553;SDS011;7878;44.632;10.942;2024-02-21T13:42:25;33.38;;;25.67;;
15553;SDS011;7878;44.632;10.942;2024-02-21T13:44:53;35.55;;;24.20;;
15553;SDS011;7878;44.632;10.942;2024-02-21T13:47:18;32.72;;;25.02;;
15553;SDS011;7878;44.632;10.942;2024-02-21T13:49:46;36.78;;;24.05;;
15553;SDS011;7878;44.632;10.942;2024-02-21T13:52:12;32.47;;;25.00;;
15553;SDS011;7878;44.632;10.942;2024-02-21T13:54:39;32.10;;;23.30;;
15553;SDS011;7878;44.632;10.942;2024-02-21T13:57:05;33.53;;;23.75;;
15553;SDS011;7878;44.632;10.942;2024-02-21T13:59:30;33.03;;;24.45;;
15553;SDS011;7878;44.632;10.942;2024-02-21T14:01:58;34.80;;;24.73;;
15553;SDS011;7878;44.632;10.942;2024-02-21T14:04:24;35.08;;;22.55;;
15553;SDS011;7878;44.632;10.942;2024-02-21T14:06:50;34.70;;;25.20;;
15553;SDS011;7878;44.632;10.942;2024-02-21T14:09:17;33.85;;;23.85;;
15553;SDS011;7878;44.632;10.942;2024-02-21T14:11:43;36.90;;;24.00;;
15553;SDS011;7878;44.632;10.942;2024-02-21T14:14:10;29.95;;;22.38;;
15553;SDS011;7878;44.632;10.942;2024-02-21T14:16:36;36.35;;;25.23;;
15553;SDS011;7878;44.632;10.942;2024-02-21T14:19:02;32.70;;;23.70;;
15553;SDS011;7878;44.632;10.942;2024-02-21T14:21:27;34.28;;;24.55;;
15553;SDS011;7878;44.632;10.942;2024-02-21T14:23:53;34.05;;;23.30;;
15553;SDS011;7878;44.632;10.942;2024-02-21T14:26:19;37.33;;;24.90;;
15553;SDS011;7878;44.632;10.942;2024-02-21T14:28:46;32.50;;;23.67;;
15553;SDS011;7878;44.632;10.942;2024-02-21T14:31:12;34.15;;;24.13;;